sensor_id;sensor_type;location;lat;lon;timestamp;P1;durP1;ratioP1;P2;durP2;ratioP2
58208;SDS011;44006;52.028;4.696;2023-01-10T00:01:20;18.35;;;2.47;;
58208;SDS011;44006;52.028;4.696;2023-01-10T00:03:45;19.92;;;2.75;;
58208;SDS011;44006;52.028;4.696;2023-01-10T00:06:11;26.98;;;4.15;;
58208;SDS011;44006;52.028;4.696;2023-01-10T00:08:36;17.05;;;3.20;;
58208;SDS011;44006;52.028;4.696;2023-01-10T00:11:01;16.67;;;2.60;;
58208;SDS011;44006;52.028;4.696;2023-01-10T00:13:47;25.60;;;3.47;;
58208;SDS011;44006;52.028;4.696;2023-01-10T00:16:12;17.05;;;3.08;;
58208;SDS011;44006;52.028;4.696;2023-01-10T00:18:37;24.05;;;3.13;;
58208;SDS011;44006;52.028;4.696;2023-01-10T00:21:02;24.83;;;3.53;;
58208;SDS011;44006;52.028;4.696;2023-01-10T00:23:27;16.45;;;2.65;;
58208;SDS011;44006;52.028;4.696;2023-01-10T00:25:53;28.17;;;3.20;;
58208;SDS011;44006;52.028;4.696;2023-01-10T00:28:18;18.33;;;2.90;;
58208;SDS011;44006;52.028;4.696;2023-01-10T00:30:50;22.30;;;3.10;;
58208;SDS011;44006;52.028;4.696;2023-01-10T00:33:19;25.30;;;3.33;;
58208;SDS011;44006;52.028;4.696;2023-01-10T00:35:45;23.80;;;3.00;;
58208;SDS011;44006;52.028;4.696;2023-01-10T00:38:10;17.48;;;3.03;;
58208;SDS011;44006;52.028;4.696;2023-01-10T00:40:35;19.40;;;3.03;;
58208;SDS011;44006;52.028;4.696;2023-01-10T00:43:02;26.77;;;3.17;;
58208;SDS011;44006;52.028;4.696;2023-01-10T00:45:46;15.52;;;2.95;;
58208;SDS011;44006;52.028;4.696;2023-01-10T00:48:12;20.05;;;2.85;;
58208;SDS011;44006;52.028;4.696;2023-01-10T00:50:37;21.80;;;2.95;;
58208;SDS011;44006;52.028;4.696;2023-01-10T00:53:02;20.95;;;2.83;;
58208;SDS011;44006;52.028;4.696;2023-01-10T00:55:28;20.90;;;2.85;;
58208;SDS011;44006;52.028;4.696;2023-01-10T00:57:53;24.65;;;3.65;;
58208;SDS011;44006;52.028;4.696;2023-01-10T01:00:19;25.63;;;4.00;;
58208;SDS011;44006;52.028;4.696;2023-01-10T01:02:45;27.90;;;3.63;;
58208;SDS011;44006;52.028;4.696;2023-01-10T01:05:10;21.75;;;3.25;;
58208;SDS011;44006;52.028;4.696;2023-01-10T01:07:35;19.27;;;3.25;;
58208;SDS011;44006;52.028;4.696;2023-01-10T01:10:00;22.48;;;2.92;;
58208;SDS011;44006;52.028;4.696;2023-01-10T01:12:44;28.15;;;4.25;;
58208;SDS011;44006;52.028;4.696;2023-01-10T01:15:10;25.65;;;3.78;;
58208;SDS011;44006;52.028;4.696;2023-01-10T01:17:36;24.50;;;2.92;;
58208;SDS011;44006;52.028;4.696;2023-01-10T01:20:01;29.60;;;3.25;;
58208;SDS011;44006;52.028;4.696;2023-01-10T01:22:27;16.80;;;3.28;;
58208;SDS011;44006;52.028;4.696;2023-01-10T01:24:52;21.02;;;2.90;;
58208;SDS011;44006;52.028;4.696;2023-01-10T01:27:17;23.58;;;3.15;;
58208;SDS011;44006;52.028;4.696;2023-01-10T01:29:43;25.92;;;3.47;;
58208;SDS011;44006;52.028;4.696;2023-01-10T01:32:09;19.67;;;3.30;;
58208;SDS011;44006;52.028;4.696;2023-01-10T01:34:34;24.70;;;3.03;;
58208;SDS011;44006;52.028;4.696;2023-01-10T01:36:59;26.17;;;3.30;;
58208;SDS011;44006;52.028;4.696;2023-01-10T01:39:25;26.75;;;3.33;;
58208;SDS011;44006;52.028;4.696;2023-01-10T01:41:50;19.65;;;3.22;;
58208;SDS011;44006;52.028;4.696;2023-01-10T01:44:21;20.45;;;3.17;;
58208;SDS011;44006;52.028;4.696;2023-01-10T01:46:49;19.88;;;3.17;;
58208;SDS011;44006;52.028;4.696;2023-01-10T01:49:19;27.08;;;3.60;;
58208;SDS011;44006;52.028;4.696;2023-01-10T01:51:46;20.60;;;3.15;;
58208;SDS011;44006;52.028;4.696;2023-01-10T01:54:13;18.20;;;3.15;;
58208;SDS011;44006;52.028;4.696;2023-01-10T01:57:13;23.70;;;3.60;;
58208;SDS011;44006;52.028;4.696;2023-01-10T01:59:35;26.77;;;3.55;;
58208;SDS011;44006;52.028;4.696;2023-01-10T02:02:06;17.98;;;3.53;;
58208;SDS011;44006;52.028;4.696;2023-01-10T02:04:44;22.70;;;3.67;;
58208;SDS011;44006;52.028;4.696;2023-01-10T02:07:12;22.20;;;3.05;;
58208;SDS011;44006;52.028;4.696;2023-01-10T02:12:15;21.20;;;3.20;;
58208;SDS011;44006;52.028;4.696;2023-01-10T02:14:43;25.08;;;3.45;;
58208;SDS011;44006;52.028;4.696;2023-01-10T02:17:09;19.45;;;3.88;;
58208;SDS011;44006;52.028;4.696;2023-01-10T02:19:52;29.20;;;3.95;;
58208;SDS011;44006;52.028;4.696;2023-01-10T02:27:26;26.00;;;3.50;;
58208;SDS011;44006;52.028;4.696;2023-01-10T02:32:23;27.70;;;3.63;;
58208;SDS011;44006;52.028;4.696;2023-01-10T02:40:07;25.65;;;3.92;;
58208;SDS011;44006;52.028;4.696;2023-01-10T02:42:40;20.63;;;3.45;;
58208;SDS011;44006;52.028;4.696;2023-01-10T02:47:50;25.55;;;3.45;;
58208;SDS011;44006;52.028;4.696;2023-01-10T02:53:02;27.17;;;3.78;;
58208;SDS011;44006;52.028;4.696;2023-01-10T02:55:33;30.80;;;4.15;;
58208;SDS011;44006;52.028;4.696;2023-01-10T02:58:04;21.10;;;3.60;;
58208;SDS011;44006;52.028;4.696;2023-01-10T03:08:22;23.63;;;3.58;;
58208;SDS011;44006;52.028;4.696;2023-01-10T03:10:53;27.05;;;4.07;;
58208;SDS011;44006;52.028;4.696;2023-01-10T03:13:24;20.63;;;3.53;;
58208;SDS011;44006;52.028;4.696;2023-01-10T03:15:50;26.20;;;3.72;;
58208;SDS011;44006;52.028;4.696;2023-01-10T03:18:18;29.13;;;3.80;;
58208;SDS011;44006;52.028;4.696;2023-01-10T03:20:45;29.60;;;4.07;;
58208;SDS011;44006;52.028;4.696;2023-01-10T03:23:12;22.65;;;4.25;;
58208;SDS011;44006;52.028;4.696;2023-01-10T03:25:39;28.27;;;4.63;;
58208;SDS011;44006;52.028;4.696;2023-01-10T03:30:40;27.92;;;4.45;;
58208;SDS011;44006;52.028;4.696;2023-01-10T03:33:07;24.05;;;4.18;;
58208;SDS011;44006;52.028;4.696;2023-01-10T03:41:15;21.02;;;4.50;;
58208;SDS011;44006;52.028;4.696;2023-01-10T03:43:52;26.08;;;4.05;;
58208;SDS011;44006;52.028;4.696;2023-01-10T03:46:41;26.10;;;4.28;;
58208;SDS011;44006;52.028;4.696;2023-01-10T03:49:08;21.70;;;3.92;;
58208;SDS011;44006;52.028;4.696;2023-01-10T03:51:35;20.38;;;3.88;;
58208;SDS011;44006;52.028;4.696;2023-01-10T03:54:03;22.05;;;3.58;;
58208;SDS011;44006;52.028;4.696;2023-01-10T03:56:28;21.33;;;3.58;;
58208;SDS011;44006;52.028;4.696;2023-01-10T03:58:53;29.05;;;4.85;;
58208;SDS011;44006;52.028;4.696;2023-01-10T04:01:18;22.02;;;4.15;;
58208;SDS011;44006;52.028;4.696;2023-01-10T04:03:44;27.27;;;4.43;;
58208;SDS011;44006;52.028;4.696;2023-01-10T04:06:09;30.02;;;3.78;;
58208;SDS011;44006;52.028;4.696;2023-01-10T04:08:34;22.75;;;3.75;;
58208;SDS011;44006;52.028;4.696;2023-01-10T04:10:59;25.40;;;4.47;;
58208;SDS011;44006;52.028;4.696;2023-01-10T04:13:25;23.30;;;3.80;;
58208;SDS011;44006;52.028;4.696;2023-01-10T04:15:51;19.55;;;3.67;;
58208;SDS011;44006;52.028;4.696;2023-01-10T04:18:16;34.28;;;5.25;;
58208;SDS011;44006;52.028;4.696;2023-01-10T04:20:43;32.85;;;4.88;;
58208;SDS011;44006;52.028;4.696;2023-01-10T04:23:08;22.30;;;3.75;;
58208;SDS011;44006;52.028;4.696;2023-01-10T04:25:33;22.45;;;3.53;;
58208;SDS011;44006;52.028;4.696;2023-01-10T04:27:58;25.25;;;4.80;;
58208;SDS011;44006;52.028;4.696;2023-01-10T04:30:24;23.88;;;4.05;;
58208;SDS011;44006;52.028;4.696;2023-01-10T04:32:49;22.38;;;4.72;;
58208;SDS011;44006;52.028;4.696;2023-01-10T04:35:14;27.95;;;4.38;;
58208;SDS011;44006;52.028;4.696;2023-01-10T04:37:39;27.30;;;4.80;;
58208;SDS011;44006;52.028;4.696;2023-01-10T04:40:05;26.50;;;4.45;;
58208;SDS011;44006;52.028;4.696;2023-01-10T04:42:30;26.67;;;4.30;;
58208;SDS011;44006;52.028;4.696;2023-01-10T04:44:55;25.83;;;4.35;;
58208;SDS011;44006;52.028;4.696;2023-01-10T04:47:21;28.02;;;4.30;;
58208;SDS011;44006;52.028;4.696;2023-01-10T04:49:46;28.98;;;4.30;;
58208;SDS011;44006;52.028;4.696;2023-01-10T04:52:11;22.63;;;3.92;;
58208;SDS011;44006;52.028;4.696;2023-01-10T04:54:36;26.98;;;4.78;;
58208;SDS011;44006;52.028;4.696;2023-01-10T04:57:02;18.85;;;3.70;;
58208;SDS011;44006;52.028;4.696;2023-01-10T04:59:30;26.05;;;4.05;;
58208;SDS011;44006;52.028;4.696;2023-01-10T05:01:56;27.73;;;4.07;;
58208;SDS011;44006;52.028;4.696;2023-01-10T05:04:21;24.50;;;4.28;;
58208;SDS011;44006;52.028;4.696;2023-01-10T05:06:47;27.30;;;4.15;;
58208;SDS011;44006;52.028;4.696;2023-01-10T05:09:13;27.00;;;3.83;;
58208;SDS011;44006;52.028;4.696;2023-01-10T05:11:38;23.75;;;4.07;;
58208;SDS011;44006;52.028;4.696;2023-01-10T05:14:03;26.90;;;3.72;;
58208;SDS011;44006;52.028;4.696;2023-01-10T05:16:29;24.10;;;3.65;;
58208;SDS011;44006;52.028;4.696;2023-01-10T05:18:54;22.00;;;3.53;;
58208;SDS011;44006;52.028;4.696;2023-01-10T05:21:19;22.40;;;4.00;;
58208;SDS011;44006;52.028;4.696;2023-01-10T05:23:45;31.85;;;4.00;;
58208;SDS011;44006;52.028;4.696;2023-01-10T05:26:11;26.23;;;4.65;;
58208;SDS011;44006;52.028;4.696;2023-01-10T05:28:37;21.65;;;3.50;;
58208;SDS011;44006;52.028;4.696;2023-01-10T05:31:04;31.58;;;4.18;;
58208;SDS011;44006;52.028;4.696;2023-01-10T05:33:29;27.20;;;5.15;;
58208;SDS011;44006;52.028;4.696;2023-01-10T05:35:55;23.27;;;3.85;;
58208;SDS011;44006;52.028;4.696;2023-01-10T05:38:20;22.48;;;4.47;;
58208;SDS011;44006;52.028;4.696;2023-01-10T05:40:45;21.50;;;4.10;;
58208;SDS011;44006;52.028;4.696;2023-01-10T05:43:10;34.08;;;4.35;;
58208;SDS011;44006;52.028;4.696;2023-01-10T05:45:36;25.65;;;4.30;;
58208;SDS011;44006;52.028;4.696;2023-01-10T05:48:01;30.38;;;3.97;;
58208;SDS011;44006;52.028;4.696;2023-01-10T05:50:27;26.85;;;3.72;;
58208;SDS011;44006;52.028;4.696;2023-01-10T05:52:54;25.27;;;4.22;;
58208;SDS011;44006;52.028;4.696;2023-01-10T05:55:22;23.20;;;4.53;;
58208;SDS011;44006;52.028;4.696;2023-01-10T05:57:49;30.38;;;5.03;;
58208;SDS011;44006;52.028;4.696;2023-01-10T06:00:18;27.55;;;4.05;;
58208;SDS011;44006;52.028;4.696;2023-01-10T06:02:43;29.83;;;3.97;;
58208;SDS011;44006;52.028;4.696;2023-01-10T06:05:09;25.27;;;3.92;;
58208;SDS011;44006;52.028;4.696;2023-01-10T06:07:35;35.28;;;3.88;;
58208;SDS011;44006;52.028;4.696;2023-01-10T06:10:02;28.70;;;5.75;;
58208;SDS011;44006;52.028;4.696;2023-01-10T06:12:28;24.25;;;3.53;;
58208;SDS011;44006;52.028;4.696;2023-01-10T06:14:54;23.17;;;4.32;;
58208;SDS011;44006;52.028;4.696;2023-01-10T06:17:20;20.98;;;4.32;;
58208;SDS011;44006;52.028;4.696;2023-01-10T06:22:20;28.73;;;4.38;;
58208;SDS011;44006;52.028;4.696;2023-01-10T06:24:45;26.77;;;4.20;;
58208;SDS011;44006;52.028;4.696;2023-01-10T06:27:11;27.48;;;4.22;;
58208;SDS011;44006;52.028;4.696;2023-01-10T06:29:36;27.52;;;4.10;;
58208;SDS011;44006;52.028;4.696;2023-01-10T06:32:02;27.35;;;4.57;;
58208;SDS011;44006;52.028;4.696;2023-01-10T06:34:27;24.08;;;5.25;;
58208;SDS011;44006;52.028;4.696;2023-01-10T06:36:52;32.47;;;4.32;;
58208;SDS011;44006;52.028;4.696;2023-01-10T06:39:18;22.75;;;3.83;;
58208;SDS011;44006;52.028;4.696;2023-01-10T06:41:44;26.35;;;4.68;;
58208;SDS011;44006;52.028;4.696;2023-01-10T06:44:10;28.95;;;4.70;;
58208;SDS011;44006;52.028;4.696;2023-01-10T06:46:35;26.67;;;5.07;;
58208;SDS011;44006;52.028;4.696;2023-01-10T06:49:00;30.38;;;4.35;;
58208;SDS011;44006;52.028;4.696;2023-01-10T06:51:25;26.65;;;4.40;;
58208;SDS011;44006;52.028;4.696;2023-01-10T06:53:51;27.23;;;4.68;;
58208;SDS011;44006;52.028;4.696;2023-01-10T06:56:17;27.63;;;4.80;;
58208;SDS011;44006;52.028;4.696;2023-01-10T06:58:42;30.05;;;4.15;;
58208;SDS011;44006;52.028;4.696;2023-01-10T07:01:14;34.47;;;5.18;;
58208;SDS011;44006;52.028;4.696;2023-01-10T07:03:40;30.40;;;4.10;;
58208;SDS011;44006;52.028;4.696;2023-01-10T07:06:06;28.27;;;3.83;;
58208;SDS011;44006;52.028;4.696;2023-01-10T07:08:38;27.55;;;4.80;;
58208;SDS011;44006;52.028;4.696;2023-01-10T07:11:04;32.55;;;5.03;;
58208;SDS011;44006;52.028;4.696;2023-01-10T07:13:29;35.30;;;5.22;;
58208;SDS011;44006;52.028;4.696;2023-01-10T07:16:28;28.67;;;4.22;;
58208;SDS011;44006;52.028;4.696;2023-01-10T07:18:47;30.70;;;4.30;;
58208;SDS011;44006;52.028;4.696;2023-01-10T07:21:12;31.30;;;5.05;;
58208;SDS011;44006;52.028;4.696;2023-01-10T07:23:38;23.55;;;4.07;;
58208;SDS011;44006;52.028;4.696;2023-01-10T07:26:05;29.20;;;4.28;;
58208;SDS011;44006;52.028;4.696;2023-01-10T07:28:30;23.15;;;4.28;;
58208;SDS011;44006;52.028;4.696;2023-01-10T07:30:58;25.38;;;4.15;;
58208;SDS011;44006;52.028;4.696;2023-01-10T07:33:25;24.40;;;5.07;;
58208;SDS011;44006;52.028;4.696;2023-01-10T07:35:50;32.72;;;4.57;;
58208;SDS011;44006;52.028;4.696;2023-01-10T07:38:15;24.38;;;4.57;;
58208;SDS011;44006;52.028;4.696;2023-01-10T07:40:41;37.53;;;4.72;;
58208;SDS011;44006;52.028;4.696;2023-01-10T07:43:06;22.60;;;4.35;;
58208;SDS011;44006;52.028;4.696;2023-01-10T07:45:31;27.75;;;5.32;;
58208;SDS011;44006;52.028;4.696;2023-01-10T07:47:59;26.30;;;4.63;;
58208;SDS011;44006;52.028;4.696;2023-01-10T07:50:26;33.35;;;5.07;;
58208;SDS011;44006;52.028;4.696;2023-01-10T07:52:51;25.88;;;4.57;;
58208;SDS011;44006;52.028;4.696;2023-01-10T07:55:16;33.15;;;4.90;;
58208;SDS011;44006;52.028;4.696;2023-01-10T07:57:42;35.85;;;5.57;;
58208;SDS011;44006;52.028;4.696;2023-01-10T08:00:07;29.42;;;5.38;;
58208;SDS011;44006;52.028;4.696;2023-01-10T08:02:33;31.73;;;5.22;;
58208;SDS011;44006;52.028;4.696;2023-01-10T08:04:58;34.15;;;5.10;;
58208;SDS011;44006;52.028;4.696;2023-01-10T08:07:24;27.52;;;4.53;;
58208;SDS011;44006;52.028;4.696;2023-01-10T08:09:49;31.55;;;4.70;;
58208;SDS011;44006;52.028;4.696;2023-01-10T08:12:15;29.17;;;4.90;;
58208;SDS011;44006;52.028;4.696;2023-01-10T08:14:40;24.15;;;4.90;;
58208;SDS011;44006;52.028;4.696;2023-01-10T08:17:05;26.27;;;4.85;;
58208;SDS011;44006;52.028;4.696;2023-01-10T08:19:30;31.02;;;5.18;;
58208;SDS011;44006;52.028;4.696;2023-01-10T08:21:56;33.03;;;5.35;;
58208;SDS011;44006;52.028;4.696;2023-01-10T08:24:21;29.88;;;5.65;;
58208;SDS011;44006;52.028;4.696;2023-01-10T08:26:47;31.80;;;6.05;;
58208;SDS011;44006;52.028;4.696;2023-01-10T08:29:12;33.85;;;6.53;;
58208;SDS011;44006;52.028;4.696;2023-01-10T08:31:39;29.30;;;5.68;;
58208;SDS011;44006;52.028;4.696;2023-01-10T08:34:05;37.30;;;6.95;;
58208;SDS011;44006;52.028;4.696;2023-01-10T08:36:31;32.88;;;5.95;;
58208;SDS011;44006;52.028;4.696;2023-01-10T08:38:58;36.55;;;7.10;;
58208;SDS011;44006;52.028;4.696;2023-01-10T08:41:23;29.83;;;6.53;;
58208;SDS011;44006;52.028;4.696;2023-01-10T08:43:49;33.00;;;6.72;;
58208;SDS011;44006;52.028;4.696;2023-01-10T08:46:14;26.30;;;6.40;;
58208;SDS011;44006;52.028;4.696;2023-01-10T08:48:40;30.75;;;6.63;;
58208;SDS011;44006;52.028;4.696;2023-01-10T08:51:06;24.02;;;5.90;;
58208;SDS011;44006;52.028;4.696;2023-01-10T08:53:33;29.25;;;6.80;;
58208;SDS011;44006;52.028;4.696;2023-01-10T08:55:58;39.28;;;6.60;;
58208;SDS011;44006;52.028;4.696;2023-01-10T08:58:24;36.60;;;6.10;;
58208;SDS011;44006;52.028;4.696;2023-01-10T09:00:50;37.92;;;7.10;;
58208;SDS011;44006;52.028;4.696;2023-01-10T09:03:15;30.08;;;6.50;;
58208;SDS011;44006;52.028;4.696;2023-01-10T09:05:40;24.30;;;5.78;;
58208;SDS011;44006;52.028;4.696;2023-01-10T09:08:06;27.63;;;6.75;;
58208;SDS011;44006;52.028;4.696;2023-01-10T09:10:32;34.10;;;6.40;;
58208;SDS011;44006;52.028;4.696;2023-01-10T09:12:58;43.25;;;7.13;;
58208;SDS011;44006;52.028;4.696;2023-01-10T09:15:32;28.80;;;6.20;;
58208;SDS011;44006;52.028;4.696;2023-01-10T09:18:06;30.17;;;6.22;;
58208;SDS011;44006;52.028;4.696;2023-01-10T09:20:32;28.05;;;6.03;;
58208;SDS011;44006;52.028;4.696;2023-01-10T09:22:58;33.35;;;6.30;;
58208;SDS011;44006;52.028;4.696;2023-01-10T09:25:27;26.38;;;6.70;;
58208;SDS011;44006;52.028;4.696;2023-01-10T09:27:57;29.38;;;6.57;;
58208;SDS011;44006;52.028;4.696;2023-01-10T09:30:23;33.65;;;7.10;;
58208;SDS011;44006;52.028;4.696;2023-01-10T09:32:49;38.33;;;7.22;;
58208;SDS011;44006;52.028;4.696;2023-01-10T09:35:15;41.85;;;6.97;;
58208;SDS011;44006;52.028;4.696;2023-01-10T09:37:40;26.08;;;7.15;;
58208;SDS011;44006;52.028;4.696;2023-01-10T09:40:07;31.58;;;6.60;;
58208;SDS011;44006;52.028;4.696;2023-01-10T09:42:37;41.22;;;6.75;;
58208;SDS011;44006;52.028;4.696;2023-01-10T09:45:20;31.73;;;6.78;;
58208;SDS011;44006;52.028;4.696;2023-01-10T09:52:49;35.47;;;5.72;;
58208;SDS011;44006;52.028;4.696;2023-01-10T09:57:48;31.80;;;6.38;;
58208;SDS011;44006;52.028;4.696;2023-01-10T10:00:16;30.17;;;5.75;;
58208;SDS011;44006;52.028;4.696;2023-01-10T10:02:44;30.23;;;5.78;;
58208;SDS011;44006;52.028;4.696;2023-01-10T10:05:21;28.85;;;5.88;;
58208;SDS011;44006;52.028;4.696;2023-01-10T10:07:54;31.48;;;5.90;;
58208;SDS011;44006;52.028;4.696;2023-01-10T10:10:33;31.85;;;5.07;;
58208;SDS011;44006;52.028;4.696;2023-01-10T10:13:17;31.80;;;5.72;;
58208;SDS011;44006;52.028;4.696;2023-01-10T10:16:07;31.10;;;5.43;;
58208;SDS011;44006;52.028;4.696;2023-01-10T10:18:43;32.92;;;6.18;;
58208;SDS011;44006;52.028;4.696;2023-01-10T10:24:01;40.63;;;6.47;;
58208;SDS011;44006;52.028;4.696;2023-01-10T10:38:47;32.75;;;6.05;;
58208;SDS011;44006;52.028;4.696;2023-01-10T10:41:23;25.10;;;5.97;;
58208;SDS011;44006;52.028;4.696;2023-01-10T10:43:51;28.73;;;5.95;;
58208;SDS011;44006;52.028;4.696;2023-01-10T10:46:18;30.52;;;5.50;;
58208;SDS011;44006;52.028;4.696;2023-01-10T10:49:00;25.05;;;5.43;;
58208;SDS011;44006;52.028;4.696;2023-01-10T10:51:39;24.33;;;5.30;;
58208;SDS011;44006;52.028;4.696;2023-01-10T10:54:07;24.10;;;5.10;;
58208;SDS011;44006;52.028;4.696;2023-01-10T10:56:35;27.08;;;5.65;;
58208;SDS011;44006;52.028;4.696;2023-01-10T10:59:00;31.23;;;6.03;;
58208;SDS011;44006;52.028;4.696;2023-01-10T11:01:25;30.65;;;5.60;;
58208;SDS011;44006;52.028;4.696;2023-01-10T11:03:52;30.05;;;5.30;;
58208;SDS011;44006;52.028;4.696;2023-01-10T11:06:22;30.38;;;5.35;;
58208;SDS011;44006;52.028;4.696;2023-01-10T11:08:49;30.13;;;5.50;;
58208;SDS011;44006;52.028;4.696;2023-01-10T11:11:21;22.90;;;4.90;;
58208;SDS011;44006;52.028;4.696;2023-01-10T11:16:49;22.77;;;5.38;;
58208;SDS011;44006;52.028;4.696;2023-01-10T11:19:20;26.23;;;5.07;;
58208;SDS011;44006;52.028;4.696;2023-01-10T11:21:51;27.58;;;4.68;;
58208;SDS011;44006;52.028;4.696;2023-01-10T11:25:00;26.10;;;5.03;;
58208;SDS011;44006;52.028;4.696;2023-01-10T11:27:14;27.00;;;4.80;;
58208;SDS011;44006;52.028;4.696;2023-01-10T11:29:44;26.48;;;5.32;;
58208;SDS011;44006;52.028;4.696;2023-01-10T11:32:11;22.17;;;4.73;;
58208;SDS011;44006;52.028;4.696;2023-01-10T11:34:39;28.88;;;5.10;;
58208;SDS011;44006;52.028;4.696;2023-01-10T11:37:16;27.98;;;5.07;;
58208;SDS011;44006;52.028;4.696;2023-01-10T11:39:42;21.63;;;4.88;;
58208;SDS011;44006;52.028;4.696;2023-01-10T11:42:30;26.25;;;4.75;;
58208;SDS011;44006;52.028;4.696;2023-01-10T11:47:40;23.02;;;4.70;;
58208;SDS011;44006;52.028;4.696;2023-01-10T11:50:08;23.77;;;4.63;;
58208;SDS011;44006;52.028;4.696;2023-01-10T11:52:34;27.80;;;5.07;;
58208;SDS011;44006;52.028;4.696;2023-01-10T11:54:59;29.40;;;4.90;;
58208;SDS011;44006;52.028;4.696;2023-01-10T11:57:26;25.73;;;5.28;;
58208;SDS011;44006;52.028;4.696;2023-01-10T11:59:54;21.15;;;4.75;;
58208;SDS011;44006;52.028;4.696;2023-01-10T12:02:24;26.58;;;6.10;;
58208;SDS011;44006;52.028;4.696;2023-01-10T12:04:51;24.30;;;5.38;;
58208;SDS011;44006;52.028;4.696;2023-01-10T12:07:16;24.50;;;5.60;;
58208;SDS011;44006;52.028;4.696;2023-01-10T12:12:20;30.58;;;5.72;;
58208;SDS011;44006;52.028;4.696;2023-01-10T12:14:47;28.00;;;5.22;;
58208;SDS011;44006;52.028;4.696;2023-01-10T12:17:17;30.65;;;6.22;;
58208;SDS011;44006;52.028;4.696;2023-01-10T12:22:12;26.33;;;5.30;;
58208;SDS011;44006;52.028;4.696;2023-01-10T12:24:39;27.58;;;4.93;;
58208;SDS011;44006;52.028;4.696;2023-01-10T12:27:13;29.52;;;5.13;;
58208;SDS011;44006;52.028;4.696;2023-01-10T12:29:40;28.27;;;5.28;;
58208;SDS011;44006;52.028;4.696;2023-01-10T12:32:11;27.95;;;4.88;;
58208;SDS011;44006;52.028;4.696;2023-01-10T12:34:39;28.13;;;4.95;;
58208;SDS011;44006;52.028;4.696;2023-01-10T12:37:15;28.67;;;4.75;;
58208;SDS011;44006;52.028;4.696;2023-01-10T12:39:52;31.75;;;5.57;;
58208;SDS011;44006;52.028;4.696;2023-01-10T12:42:42;25.73;;;5.05;;
58208;SDS011;44006;52.028;4.696;2023-01-10T12:45:29;23.02;;;5.10;;
58208;SDS011;44006;52.028;4.696;2023-01-10T12:50:36;24.67;;;4.90;;
58208;SDS011;44006;52.028;4.696;2023-01-10T12:55:33;31.65;;;5.78;;
58208;SDS011;44006;52.028;4.696;2023-01-10T12:58:01;35.13;;;4.75;;
58208;SDS011;44006;52.028;4.696;2023-01-10T13:00:34;24.27;;;4.90;;
58208;SDS011;44006;52.028;4.696;2023-01-10T13:03:00;30.27;;;4.88;;
58208;SDS011;44006;52.028;4.696;2023-01-10T13:05:28;26.67;;;4.97;;
58208;SDS011;44006;52.028;4.696;2023-01-10T13:07:55;26.48;;;4.85;;
58208;SDS011;44006;52.028;4.696;2023-01-10T13:10:23;27.70;;;4.72;;
58208;SDS011;44006;52.028;4.696;2023-01-10T13:13:12;27.27;;;4.57;;
58208;SDS011;44006;52.028;4.696;2023-01-10T13:15:52;29.73;;;4.68;;
58208;SDS011;44006;52.028;4.696;2023-01-10T13:18:24;25.13;;;5.30;;
58208;SDS011;44006;52.028;4.696;2023-01-10T13:21:00;30.65;;;4.95;;
58208;SDS011;44006;52.028;4.696;2023-01-10T13:23:28;26.52;;;4.55;;
58208;SDS011;44006;52.028;4.696;2023-01-10T13:25:56;26.15;;;5.90;;
58208;SDS011;44006;52.028;4.696;2023-01-10T13:28:23;32.75;;;4.95;;
58208;SDS011;44006;52.028;4.696;2023-01-10T13:30:54;33.65;;;4.78;;
58208;SDS011;44006;52.028;4.696;2023-01-10T13:35:49;27.00;;;4.47;;
58208;SDS011;44006;52.028;4.696;2023-01-10T13:38:26;26.75;;;5.35;;
58208;SDS011;44006;52.028;4.696;2023-01-10T13:40:57;29.58;;;5.25;;
58208;SDS011;44006;52.028;4.696;2023-01-10T13:51:16;24.02;;;4.47;;
58208;SDS011;44006;52.028;4.696;2023-01-10T13:56:31;31.70;;;4.78;;
58208;SDS011;44006;52.028;4.696;2023-01-10T13:58:56;30.00;;;5.22;;
58208;SDS011;44006;52.028;4.696;2023-01-10T14:01:40;25.67;;;4.70;;
58208;SDS011;44006;52.028;4.696;2023-01-10T14:09:47;24.17;;;5.05;;
58208;SDS011;44006;52.028;4.696;2023-01-10T14:14:49;27.25;;;5.00;;
58208;SDS011;44006;52.028;4.696;2023-01-10T14:17:24;26.85;;;5.03;;
58208;SDS011;44006;52.028;4.696;2023-01-10T14:22:25;17.60;;;4.07;;
58208;SDS011;44006;52.028;4.696;2023-01-10T14:24:51;22.98;;;4.07;;
58208;SDS011;44006;52.028;4.696;2023-01-10T14:27:17;24.27;;;4.72;;
58208;SDS011;44006;52.028;4.696;2023-01-10T14:29:45;21.30;;;4.45;;
58208;SDS011;44006;52.028;4.696;2023-01-10T14:32:33;21.50;;;4.20;;
58208;SDS011;44006;52.028;4.696;2023-01-10T14:34:58;22.48;;;4.35;;
58208;SDS011;44006;52.028;4.696;2023-01-10T14:37:30;26.63;;;5.15;;
58208;SDS011;44006;52.028;4.696;2023-01-10T14:39:56;20.85;;;5.00;;
58208;SDS011;44006;52.028;4.696;2023-01-10T14:42:22;21.65;;;4.25;;
58208;SDS011;44006;52.028;4.696;2023-01-10T14:44:50;25.33;;;4.10;;
58208;SDS011;44006;52.028;4.696;2023-01-10T14:47:32;26.52;;;4.93;;
58208;SDS011;44006;52.028;4.696;2023-01-10T14:49:58;24.90;;;4.50;;
58208;SDS011;44006;52.028;4.696;2023-01-10T14:52:32;24.55;;;4.63;;
58208;SDS011;44006;52.028;4.696;2023-01-10T14:55:14;21.70;;;4.63;;
58208;SDS011;44006;52.028;4.696;2023-01-10T14:57:51;20.52;;;4.50;;
58208;SDS011;44006;52.028;4.696;2023-01-10T15:00:16;21.88;;;4.43;;
58208;SDS011;44006;52.028;4.696;2023-01-10T15:02:43;20.75;;;4.28;;
58208;SDS011;44006;52.028;4.696;2023-01-10T15:07:41;22.88;;;4.63;;
58208;SDS011;44006;52.028;4.696;2023-01-10T15:10:16;25.35;;;4.80;;
58208;SDS011;44006;52.028;4.696;2023-01-10T15:12:44;18.98;;;5.00;;
58208;SDS011;44006;52.028;4.696;2023-01-10T15:15:14;25.27;;;5.15;;
58208;SDS011;44006;52.028;4.696;2023-01-10T15:17:40;23.00;;;5.03;;
58208;SDS011;44006;52.028;4.696;2023-01-10T15:20:06;27.13;;;5.35;;
58208;SDS011;44006;52.028;4.696;2023-01-10T15:22:32;28.10;;;5.20;;
58208;SDS011;44006;52.028;4.696;2023-01-10T15:25:05;18.73;;;4.70;;
58208;SDS011;44006;52.028;4.696;2023-01-10T15:27:32;22.42;;;4.60;;
58208;SDS011;44006;52.028;4.696;2023-01-10T15:29:58;19.23;;;4.93;;
58208;SDS011;44006;52.028;4.696;2023-01-10T15:32:28;19.17;;;4.38;;
58208;SDS011;44006;52.028;4.696;2023-01-10T15:34:56;19.17;;;4.70;;
58208;SDS011;44006;52.028;4.696;2023-01-10T15:37:26;17.65;;;4.88;;
58208;SDS011;44006;52.028;4.696;2023-01-10T15:39:52;21.88;;;4.88;;
58208;SDS011;44006;52.028;4.696;2023-01-10T15:42:18;19.73;;;5.10;;
58208;SDS011;44006;52.028;4.696;2023-01-10T15:44:45;16.30;;;4.57;;
58208;SDS011;44006;52.028;4.696;2023-01-10T15:50:02;18.02;;;4.97;;
58208;SDS011;44006;52.028;4.696;2023-01-10T15:52:27;18.38;;;4.50;;
58208;SDS011;44006;52.028;4.696;2023-01-10T15:54:52;15.05;;;4.65;;
58208;SDS011;44006;52.028;4.696;2023-01-10T15:57:28;11.27;;;5.03;;
58208;SDS011;44006;52.028;4.696;2023-01-10T15:59:54;15.80;;;4.40;;
58208;SDS011;44006;52.028;4.696;2023-01-10T16:02:32;12.60;;;4.90;;
58208;SDS011;44006;52.028;4.696;2023-01-10T16:04:58;14.75;;;4.88;;
58208;SDS011;44006;52.028;4.696;2023-01-10T16:07:30;14.55;;;4.60;;
58208;SDS011;44006;52.028;4.696;2023-01-10T16:12:35;16.95;;;5.50;;
58208;SDS011;44006;52.028;4.696;2023-01-10T16:15:27;12.40;;;5.07;;
58208;SDS011;44006;52.028;4.696;2023-01-10T16:17:53;12.10;;;4.80;;
58208;SDS011;44006;52.028;4.696;2023-01-10T16:20:26;14.27;;;4.90;;
58208;SDS011;44006;52.028;4.696;2023-01-10T16:22:53;12.57;;;5.25;;
58208;SDS011;44006;52.028;4.696;2023-01-10T16:25:21;10.98;;;4.97;;
58208;SDS011;44006;52.028;4.696;2023-01-10T16:27:49;14.23;;;5.03;;
58208;SDS011;44006;52.028;4.696;2023-01-10T16:32:47;12.95;;;5.43;;